DW6345 Murcia ES current weather conditions

sailwx.info

Wind from 090 at 7 knots gusting 11

Air temperature 24.4° C
Dewpoint 19.1° C

Last reported at 2016-Sep-29 10:54 UTC.
Time now 2016-Sep-29 11:52 UTC

Location: N 37°60' W 001°06'.
View on Google Maps.

See reports from other nearby stations

  
Tides and Currents Weather Stations Pressure Air Temp Water Temp Dewpoint Dewpoint Depression Visibility Wind Speed Wind Dir Waves Ship Positions
date/time (UTC)wind fromknots sea level pressurealtimeterstation pressurevisibilityair tempwater tempwave heightnotes
2016-Sep-29 10:54 090 7 gusting 11 24.4
2016-Sep-29 10:49 090 7 gusting 13 24.4
2016-Sep-29 10:44 090 5 gusting 10 24.4
2016-Sep-29 10:39 270 3 gusting 8 24.4
2016-Sep-29 10:34 090 5 gusting 11 23.9
2016-Sep-29 10:29 090 5 gusting 11 23.9
2016-Sep-29 10:24 096 5 gusting 8 23.3
2016-Sep-29 10:19 090 2 gusting 6 22.8
2016-Sep-29 10:14 090 4 gusting 8 22.8
2016-Sep-29 10:09 091 2 gusting 6 22.8
2016-Sep-29 10:04 180 0 gusting 2 22.8
2016-Sep-29 09:59 178 0 gusting 4 22.8
2016-Sep-29 09:54 180 1 gusting 4 22.8
2016-Sep-29 09:49 230 0 gusting 2 22.8
2016-Sep-29 09:44 222 0 gusting 2 22.8
2016-Sep-29 09:39 225 0 gusting 2 23.3
2016-Sep-29 09:34 093 0 gusting 2 23.3
2016-Sep-29 09:29 184 0 gusting 2 23.3
2016-Sep-29 09:24 225 1 gusting 2 22.8
2016-Sep-29 09:19 228 22.8
2016-Sep-29 09:14 180 0 gusting 4 22.2
2016-Sep-29 09:09 045 0 gusting 4 22.2
2016-Sep-29 09:04 270 22.2
2016-Sep-29 08:59 280 0 gusting 2 22.2
2016-Sep-29 08:54 045 1 gusting 2 22.2
2016-Sep-29 08:49 311 0 gusting 2 22.2
2016-Sep-29 08:44 225 0 gusting 2 21.7
2016-Sep-29 08:39 264 0 gusting 1 21.7
2016-Sep-29 08:34 101 0 gusting 1 21.7
2016-Sep-29 08:29 135 0 gusting 1 21.1
2016-Sep-29 08:24 274 0 gusting 1 21.1
2016-Sep-29 08:19 270 0 gusting 2 21.1
2016-Sep-29 08:14 225 1 gusting 2 20.6
2016-Sep-29 08:09 234 0 gusting 2 20.6
2016-Sep-29 08:04 180 20.6
2016-Sep-29 07:59 180 0 gusting 2 20.6
2016-Sep-29 07:54 090 20.6
2016-Sep-29 07:49 310 0 gusting 2 20.6
2016-Sep-29 07:44 094 0 gusting 1 20.0
2016-Sep-29 07:39 180 0 gusting 1 20.0
2016-Sep-29 07:34 183 0 gusting 2 19.4
2016-Sep-29 07:29 248 1 gusting 4 19.4
2016-Sep-29 07:24 248 2 gusting 4 19.4
2016-Sep-29 07:19 180 1 gusting 2 18.9
2016-Sep-29 07:14 180 0 gusting 2 18.9
2016-Sep-29 07:09 180 1 gusting 2 18.9
2016-Sep-29 07:04 180 0 gusting 2 19.4
2016-Sep-29 06:59 186 0 gusting 1 19.4
2016-Sep-29 06:54 180 0 gusting 1 19.4
2016-Sep-29 06:49 180 0 gusting 1 18.9
2016-Sep-29 06:44 180 19.4
2016-Sep-29 06:39 180 0 gusting 1 19.4
2016-Sep-29 06:34 180 19.4
2016-Sep-29 06:29 045 19.4
2016-Sep-29 06:24 041 0 gusting 0 18.9
2016-Sep-29 06:19 270 18.9
2016-Sep-29 06:14 270 18.9
2016-Sep-29 06:09 270 18.9
2016-Sep-29 06:04 270 18.9
2016-Sep-29 05:59 270 0 gusting 1 18.9
2016-Sep-29 05:54 270 18.9
2016-Sep-29 05:49 270 18.9
2016-Sep-29 05:44 270 18.9
2016-Sep-29 05:39 248 18.9
2016-Sep-29 05:34 248 0 gusting 0 18.9
2016-Sep-29 05:29 180 18.9
2016-Sep-29 05:24 315 18.9
2016-Sep-29 05:19 315 0 gusting 1 18.9
2016-Sep-29 05:14 315 0 gusting 1 18.9
2016-Sep-29 05:09 273 0 gusting 1 18.9
2016-Sep-29 05:04 270 18.9
2016-Sep-29 04:59 315 18.9
2016-Sep-29 04:54 265 18.9
2016-Sep-29 04:49 245 0 gusting 1 18.9
2016-Sep-29 04:44 270 18.9
2016-Sep-29 04:39 270 0 gusting 1 18.9
2016-Sep-29 04:34 270 0 gusting 1 18.9
2016-Sep-29 04:29 312 18.9
2016-Sep-29 04:24 248 0 gusting 2 18.9
2016-Sep-29 04:19 243 0 gusting 2 18.9
2016-Sep-29 04:14 186 0 gusting 4 18.9
2016-Sep-29 04:09 180 2 gusting 4 18.9
2016-Sep-29 04:04 270 18.9
2016-Sep-29 03:59 315 0 gusting 1 18.9
2016-Sep-29 03:54 180 0 gusting 1 18.9
2016-Sep-29 03:49 270 0 gusting 1 18.9
2016-Sep-29 03:44 311 0 gusting 2 18.9
2016-Sep-29 03:39 270 1 gusting 4 18.9
2016-Sep-29 03:34 270 2 gusting 5 18.9
2016-Sep-29 03:29 180 2 gusting 5 18.9
2016-Sep-29 03:24 180 2 gusting 5 18.9
2016-Sep-29 03:19 180 2 gusting 4 18.9
2016-Sep-29 03:14 180 0 gusting 2 18.9
2016-Sep-29 03:09 050 0 gusting 4 18.9
2016-Sep-29 03:04 270 1 gusting 4 18.9
2016-Sep-29 02:59 180 2 gusting 5 18.9
2016-Sep-29 02:54 183 2 gusting 5 18.9
2016-Sep-29 02:49 254 2 gusting 6 18.9
2016-Sep-29 02:44 315 3 gusting 6 18.9
2016-Sep-29 02:39 270 2 gusting 5 19.4
2016-Sep-29 02:34 191 0 gusting 2 18.9
2016-Sep-29 02:29 270 1 gusting 2 19.4
2016-Sep-29 02:24 270 1 gusting 4 18.9
2016-Sep-29 02:19 270 2 gusting 4 18.9
2016-Sep-29 02:14 270 0 gusting 1 19.4
2016-Sep-29 02:09 303 1 gusting 5 19.4
2016-Sep-29 02:04 270 2 gusting 5 19.4
2016-Sep-29 01:59 270 1 gusting 4 19.4
2016-Sep-29 01:54 270 1 gusting 5 19.4
2016-Sep-29 01:49 270 1 gusting 4 19.4
2016-Sep-29 01:44 315 0 gusting 4 19.4
2016-Sep-29 01:39 315 1 gusting 4 19.4
2016-Sep-29 01:34 231 0 gusting 4 19.4
2016-Sep-29 01:29 315 1 gusting 4 19.4
2016-Sep-29 01:24 308 0 gusting 6 19.4
2016-Sep-29 01:19 270 4 gusting 6 19.4
2016-Sep-29 01:14 270 4 gusting 6 19.4
2016-Sep-29 01:09 173 0 gusting 6 19.4
2016-Sep-29 01:04 202 5 gusting 6 19.4
2016-Sep-29 00:59 202 4 gusting 6 19.4
2016-Sep-29 00:54 184 0 gusting 2 19.4
2016-Sep-29 00:49 315 0 gusting 2 19.4
2016-Sep-29 00:44 276 1 gusting 2 19.4
2016-Sep-29 00:39 315 1 gusting 2 19.4
2016-Sep-29 00:34 315 0 gusting 2 19.4
2016-Sep-29 00:29 270 0 gusting 2 19.4
2016-Sep-29 00:24 315 0 gusting 2 19.4
2016-Sep-29 00:19 315 19.4
2016-Sep-29 00:14 135 1 gusting 2 19.4
2016-Sep-29 00:09 192 0 gusting 5 19.4
2016-Sep-29 00:04 180 2 gusting 6 19.4
2016-Sep-28 23:59 225 4 gusting 8 19.4
2016-Sep-28 23:54 265 3 gusting 6 19.4
2016-Sep-28 23:49 270 3 gusting 6 19.4
2016-Sep-28 23:44 180 4 gusting 8 20.0
2016-Sep-28 23:39 225 4 gusting 7 20.0
2016-Sep-28 23:34 274 2 gusting 5 20.6
2016-Sep-28 23:29 045 2 gusting 6 21.1
2016-Sep-28 23:24 135 0 gusting 7 21.7
2016-Sep-28 23:19 183 5 gusting 7 21.7
2016-Sep-28 23:14 141 1 gusting 4 21.7
2016-Sep-28 23:09 222 0 gusting 2 21.7
2016-Sep-28 23:04 270 0 gusting 4 21.7
2016-Sep-28 22:59 270 1 gusting 4 21.7
2016-Sep-28 22:54 266 2 gusting 4 21.7
2016-Sep-28 22:49 200 2 gusting 5 21.7
2016-Sep-28 22:44 225 0 gusting 2 21.7
2016-Sep-28 22:39 140 21.7
2016-Sep-28 22:34 225 21.7
2016-Sep-28 22:29 270 1 gusting 4 21.7
2016-Sep-28 22:24 315 0 gusting 2 21.7
2016-Sep-28 22:19 312 0 gusting 4 21.7
2016-Sep-28 22:14 315 0 gusting 2 21.7
2016-Sep-28 22:09 317 0 gusting 2 21.7
2016-Sep-28 22:04 090 21.7
2016-Sep-28 21:59 124 0 gusting 1 21.7
2016-Sep-28 21:54 096 0 gusting 0 21.7
2016-Sep-28 21:49 183 0 gusting 2 21.7
2016-Sep-28 21:44 045 1 gusting 2 21.7
2016-Sep-28 21:39 272 0 gusting 2 21.7
2016-Sep-28 21:34 315 0 gusting 2 21.7
2016-Sep-28 21:29 045 1 gusting 2 21.7
2016-Sep-28 21:24 045 0 gusting 2 21.7
2016-Sep-28 21:19 045 0 gusting 2 21.7
2016-Sep-28 21:14 315 1 gusting 5 21.7
2016-Sep-28 21:09 045 1 gusting 4 21.7
2016-Sep-28 21:04 045 1 gusting 4 22.2
2016-Sep-28 20:59 045 1 gusting 2 22.2
2016-Sep-28 20:54 045 0 gusting 2 22.2
2016-Sep-28 20:49 186 0 gusting 4 22.2
2016-Sep-28 20:44 045 2 gusting 4 22.2
2016-Sep-28 20:39 130 2 gusting 4 22.2
2016-Sep-28 20:34 045 0 gusting 5 22.8
2016-Sep-28 20:29 052 2 gusting 5 22.8
2016-Sep-28 20:24 087 2 gusting 6 22.8
2016-Sep-28 20:19 050 4 gusting 6 22.8
2016-Sep-28 20:14 050 2 gusting 7 22.8
2016-Sep-28 20:09 048 2 gusting 6 22.8
2016-Sep-28 20:04 090 2 gusting 5 22.8
2016-Sep-28 19:59 048 1 gusting 5 22.8
2016-Sep-28 19:54 132 2 gusting 5 22.8
2016-Sep-28 19:49 090 2 gusting 6 22.8
2016-Sep-28 19:44 069 3 gusting 6 22.8
2016-Sep-28 19:39 090 4 gusting 6 23.3
2016-Sep-28 19:34 045 5 gusting 8 22.8
2016-Sep-28 19:29 090 5 gusting 12 23.3
2016-Sep-28 19:24 090 6 gusting 12 23.3
2016-Sep-28 19:19 090 5 gusting 8 23.3
2016-Sep-28 19:14 090 5 gusting 11 23.3
2016-Sep-28 19:09 090 6 gusting 11 23.3
2016-Sep-28 19:04 090 6 gusting 11 23.3
2016-Sep-28 18:59 090 6 gusting 13 23.3
2016-Sep-28 18:54 090 6 gusting 13 23.3
2016-Sep-28 18:49 050 8 gusting 13 23.3
2016-Sep-28 18:44 086 7 gusting 13 23.3
2016-Sep-28 18:39 090 8 gusting 17 23.3
2016-Sep-28 18:34 088 6 gusting 13 23.3
2016-Sep-28 18:29 090 8 gusting 13 23.3
2016-Sep-28 18:24 090 5 gusting 11 23.3
2016-Sep-28 18:19 133 6 gusting 13 23.3
2016-Sep-28 18:14 172 6 gusting 17 23.9
2016-Sep-28 18:09 090 10 gusting 14 23.9
2016-Sep-28 18:04 095 5 gusting 18 23.9
2016-Sep-28 17:59 095 11 gusting 19 23.9
2016-Sep-28 17:54 049 11 gusting 21 23.9
2016-Sep-28 17:49 090 10 gusting 14 24.4
2016-Sep-28 17:44 047 6 gusting 18 24.4
2016-Sep-28 17:39 090 11 gusting 19 24.4
2016-Sep-28 17:34 090 6 gusting 13 24.4
2016-Sep-28 17:29 071 6 gusting 13 24.4
2016-Sep-28 17:24 090 7 gusting 13 24.4
2016-Sep-28 17:19 087 8 gusting 18 24.4
2016-Sep-28 17:14 090 7 gusting 17 24.4
2016-Sep-28 17:09 090 9 gusting 19 24.4
2016-Sep-28 17:04 084 9 gusting 18 25.0
2016-Sep-28 16:59 049 12 gusting 18 25.0
2016-Sep-28 16:54 050 13 gusting 19 25.0
2016-Sep-28 16:49 131 13 gusting 19 25.0
2016-Sep-28 16:44 175 4 gusting 17 25.0
2016-Sep-28 16:39 090 10 gusting 18 25.6
2016-Sep-28 16:34 133 8 gusting 20 25.6
2016-Sep-28 16:29 132 6 gusting 13 25.6
2016-Sep-28 16:24 090 6 gusting 14 25.6
2016-Sep-28 16:19 092 6 gusting 14 25.6
2016-Sep-28 16:14 173 7 gusting 17 25.6
2016-Sep-28 16:09 086 10 gusting 18 25.6
2016-Sep-28 16:04 093 6 gusting 17 25.6
2016-Sep-28 15:59 090 11 gusting 17 25.6
2016-Sep-28 15:54 135 6 gusting 14 25.6
2016-Sep-28 15:49 090 9 gusting 15 25.6
2016-Sep-28 15:44 090 12 gusting 17 25.6
2016-Sep-28 15:39 095 5 gusting 15 25.6
2016-Sep-28 15:34 090 8 gusting 18 25.6
2016-Sep-28 15:29 090 13 gusting 18 25.6
2016-Sep-28 15:24 045 8 gusting 14 25.6
2016-Sep-28 15:19 084 11 gusting 18 26.1
2016-Sep-28 15:14 129 13 gusting 19 25.6
2016-Sep-28 15:09 049 9 gusting 15 25.6
2016-Sep-28 15:04 093 7 gusting 15 25.6
2016-Sep-28 14:59 135 11 gusting 18 25.6
2016-Sep-28 14:54 090 8 gusting 18 25.6
2016-Sep-28 14:49 090 10 gusting 19 25.6
2016-Sep-28 14:44 135 11 gusting 19 25.6
2016-Sep-28 14:39 090 8 gusting 14 25.6
2016-Sep-28 14:34 045 7 gusting 18 25.6
2016-Sep-28 14:29 131 14 gusting 22 25.6
2016-Sep-28 14:24 132 8 gusting 24 26.1
2016-Sep-28 14:19 094 13 gusting 25 25.6
2016-Sep-28 14:14 050 15 gusting 25 25.6
2016-Sep-28 14:09 130 14 gusting 26 26.1
2016-Sep-28 14:04 090 15 gusting 25 26.1
2016-Sep-28 13:59 094 13 gusting 25 26.1
2016-Sep-28 13:54 068 13 gusting 19 26.1
2016-Sep-28 13:49 090 9 gusting 26 26.1
2016-Sep-28 13:44 133 9 gusting 19 26.1
2016-Sep-28 13:39 050 12 gusting 24 26.1
2016-Sep-28 13:34 045 12 gusting 24 26.1
2016-Sep-28 13:29 093 13 gusting 22 26.1
2016-Sep-28 13:24 095 9 gusting 18 26.1
2016-Sep-28 13:19 093 10 gusting 21 26.1
2016-Sep-28 13:14 090 11 gusting 21 26.1
2016-Sep-28 13:09 049 9 gusting 22 26.1
2016-Sep-28 13:04 090 11 gusting 22 26.1
2016-Sep-28 12:59 086 10 gusting 18 26.7
2016-Sep-28 12:54 135 12 gusting 18 26.7
2016-Sep-28 12:49 045 10 gusting 17 26.1
2016-Sep-28 12:44 090 7 gusting 14 26.1
2016-Sep-28 12:39 090 7 gusting 14 26.1
2016-Sep-28 12:34 090 6 gusting 14 26.1
2016-Sep-28 12:29 090 6 gusting 13 25.6
2016-Sep-28 12:24 130 6 gusting 11 25.6
2016-Sep-28 12:19 087 5 gusting 10 25.6
2016-Sep-28 12:14 082 2 gusting 13 25.6
2016-Sep-28 12:09 087 7 gusting 13 26.1
2016-Sep-28 12:04 139 6 gusting 13 26.1
2016-Sep-28 11:59 090 6 gusting 13 25.6
2016-Sep-28 11:54 090 8 gusting 17 25.6
2016-Sep-28 11:49 086 7 gusting 13 25.6
2016-Sep-28 11:44 049 6 gusting 14 25.6
2016-Sep-28 11:39 090 7 gusting 14 25.6
2016-Sep-28 11:34 050 4 gusting 13 25.6
2016-Sep-28 11:29 040 8 gusting 13 25.6
2016-Sep-28 11:24 090 8 gusting 17 25.6
2016-Sep-28 11:19 090 8 gusting 14 25.6
2016-Sep-28 11:14 090 9 gusting 14 25.6
2016-Sep-28 11:09 090 6 gusting 13 25.6
2016-Sep-28 11:04 090 6 gusting 13 25.6
2016-Sep-28 10:59 090 8 gusting 19 25.6
2016-Sep-28 10:54 049 11 gusting 19 25.6
2016-Sep-28 10:49 135 11 gusting 19 25.6
2016-Sep-28 10:44 094 9 gusting 22 25.6
2016-Sep-28 10:39 090 11 gusting 19 25.6
2016-Sep-28 10:34 090 8 gusting 19 25.6
2016-Sep-28 10:29 090 10 gusting 18 25.6
2016-Sep-28 10:24 090 11 gusting 18 25.6
2016-Sep-28 10:19 092 8 gusting 14 25.6
2016-Sep-28 10:14 071 9 gusting 13 25.0
2016-Sep-28 10:09 090 6 gusting 13 25.0
2016-Sep-28 10:04 045 9 gusting 14 25.0
2016-Sep-28 09:59 090 4 gusting 7 25.0
2016-Sep-28 09:54 045 5 gusting 8 25.0
2016-Sep-28 09:49 060 1 gusting 8 24.4
2016-Sep-28 09:44 051 7 gusting 13 24.4
2016-Sep-28 09:39 093 4 gusting 8 24.4
2016-Sep-28 09:34 049 5 gusting 11 24.4
2016-Sep-28 09:29 086 6 gusting 11 24.4
2016-Sep-28 09:24 090 5 gusting 8 25.0
2016-Sep-28 09:19 221 2 gusting 6 24.4
2016-Sep-28 09:14 320 24.4
2016-Sep-28 09:09 135 0 gusting 5 23.9
2016-Sep-28 09:04 275 3 gusting 6 23.9
2016-Sep-28 08:59 130 2 gusting 5 23.3
2016-Sep-28 08:54 133 1 gusting 2 22.8
2016-Sep-28 08:49 045 0 gusting 2 22.2
2016-Sep-28 08:44 273 0 gusting 2 22.2
2016-Sep-28 08:39 225 0 gusting 1 22.2
2016-Sep-28 08:34 140 0 gusting 1 21.7
2016-Sep-28 08:29 231 0 gusting 1 21.7
2016-Sep-28 08:24 045 0 gusting 1 21.1
2016-Sep-28 08:19 174 0 gusting 0 21.1
2016-Sep-28 08:14 220 20.6
2016-Sep-28 08:09 048 0 gusting 1 20.6
2016-Sep-28 08:04 225 20.0
2016-Sep-28 07:59 128 0 gusting 2 20.0
2016-Sep-28 07:54 092 1 gusting 4 20.0
2016-Sep-28 07:49 090 1 gusting 5 20.0
2016-Sep-28 07:44 090 2 gusting 5 20.0
2016-Sep-28 07:39 132 2 gusting 6 20.0
2016-Sep-28 07:34 090 2 gusting 6 19.4
2016-Sep-28 07:29 090 2 gusting 6 19.4
2016-Sep-28 07:24 090 4 gusting 7 19.4
2016-Sep-28 07:19 090 2 gusting 7 19.4
2016-Sep-28 07:14 090 5 gusting 10 19.4
2016-Sep-28 07:09 090 5 gusting 10 19.4
2016-Sep-28 07:04 050 6 gusting 8 19.4
2016-Sep-28 06:59 090 7 gusting 11 19.4
2016-Sep-28 06:54 090 6 gusting 8 19.4
2016-Sep-28 06:49 090 5 gusting 7 19.4
2016-Sep-28 06:44 129 4 gusting 6 18.9
2016-Sep-28 06:39 094 4 gusting 7 19.4
2016-Sep-28 06:34 049 3 gusting 6 19.4
2016-Sep-28 06:29 048 2 gusting 6 19.4
2016-Sep-28 06:24 090 3 gusting 7 19.4
2016-Sep-28 06:19 049 3 gusting 7 19.4
2016-Sep-28 06:14 090 5 gusting 7 19.4
2016-Sep-28 06:09 090 5 gusting 7 19.4
2016-Sep-28 06:04 090 5 gusting 8 19.4
2016-Sep-28 05:59 090 6 gusting 8 19.4
2016-Sep-28 05:54 090 4 gusting 7 19.4
2016-Sep-28 05:49 090 5 gusting 13 19.4
2016-Sep-28 05:44 090 6 gusting 13 20.0
2016-Sep-28 05:39 090 7 gusting 13 20.0
2016-Sep-28 05:34 090 7 gusting 13 20.6
2016-Sep-28 05:29 130 6 gusting 13 20.6
2016-Sep-28 05:24 129 7 gusting 14 21.1
2016-Sep-28 05:19 090 8 gusting 12 21.1
2016-Sep-28 05:14 315 1 gusting 2 21.1
2016-Sep-28 05:09 225 21.1
2016-Sep-28 05:04 225 21.1
2016-Sep-28 04:59 045 0 gusting 1 21.1
2016-Sep-28 04:54 180 21.1
2016-Sep-28 04:49 180 21.1
2016-Sep-28 04:44 180 21.1
2016-Sep-28 04:39 176 0 gusting 1 21.7
2016-Sep-28 04:34 135 0 gusting 0 21.7
2016-Sep-28 04:29 135 0 gusting 0 21.1
2016-Sep-28 04:24 135 21.1
2016-Sep-28 04:19 135 0 gusting 1 21.1
2016-Sep-28 04:14 090 0 gusting 0 21.1
2016-Sep-28 04:09 140 21.1
2016-Sep-28 04:04 270 21.1
2016-Sep-28 03:59 270 0 gusting 0 21.1
2016-Sep-28 03:54 270 0 gusting 1 21.1
2016-Sep-28 03:49 274 0 gusting 1 21.7
2016-Sep-28 03:44 310 21.7
2016-Sep-28 03:39 264 1 gusting 2 21.7
2016-Sep-28 03:34 225 0 gusting 2 21.7
2016-Sep-28 03:29 180 1 gusting 2 21.7
2016-Sep-28 03:24 225 1 gusting 2 21.7
2016-Sep-28 03:19 225 2 gusting 2 21.7
2016-Sep-28 03:14 180 1 gusting 2 21.7
2016-Sep-28 03:09 135 0 gusting 2 21.7
2016-Sep-28 03:04 090 21.7
2016-Sep-28 02:59 045 21.7
2016-Sep-28 02:54 315 21.7
2016-Sep-28 02:49 045 0 gusting 1 21.7
2016-Sep-28 02:44 309 0 gusting 2 21.7
2016-Sep-28 02:39 315 0 gusting 2 21.7
2016-Sep-28 02:34 313 0 gusting 2 21.7
2016-Sep-28 02:29 273 0 gusting 2 21.7
2016-Sep-28 02:24 315 1 gusting 2 21.7
2016-Sep-28 02:19 225 0 gusting 1 21.7
2016-Sep-28 02:14 180 0 gusting 1 21.7
2016-Sep-28 02:09 180 21.7
2016-Sep-28 02:04 180 21.7
2016-Sep-28 01:59 270 21.7
2016-Sep-28 01:54 315 0 gusting 1 21.7
2016-Sep-28 01:49 270 21.7
2016-Sep-28 01:44 277 0 gusting 1 21.7
2016-Sep-28 01:39 315 0 gusting 0 21.7
2016-Sep-28 01:34 225 0 gusting 0 21.7
2016-Sep-28 01:29 133 0 gusting 1 21.7
2016-Sep-28 01:24 180 0 gusting 1 21.7
2016-Sep-28 01:19 229 0 gusting 1 21.7
2016-Sep-28 01:14 270 0 gusting 1 21.7
2016-Sep-28 01:09 225 0 gusting 0 21.7
2016-Sep-28 01:04 225 21.7
2016-Sep-28 00:59 225 21.7
2016-Sep-28 00:54 225 0 gusting 0 21.7
2016-Sep-28 00:49 270 21.7
2016-Sep-28 00:44 228 21.7
2016-Sep-28 00:39 270 21.7
2016-Sep-28 00:34 270 21.7
2016-Sep-28 00:29 315 0 gusting 1 21.1
2016-Sep-28 00:24 315 0 gusting 2 21.1
2016-Sep-28 00:19 315 21.1
2016-Sep-28 00:14 315 0 gusting 2 21.1
2016-Sep-28 00:09 315 1 gusting 2 21.7
2016-Sep-28 00:04 315 0 gusting 1 21.7
2016-Sep-27 23:59 315 0 gusting 1 21.7
2016-Sep-27 23:54 312 21.7
2016-Sep-27 23:49 270 0 gusting 0 21.7
2016-Sep-27 23:44 273 21.7
2016-Sep-27 23:39 270 21.7
2016-Sep-27 23:34 045 21.7
2016-Sep-27 23:29 272 0 gusting 0 21.7
2016-Sep-27 23:24 315 21.7
2016-Sep-27 23:19 090 21.7
2016-Sep-27 23:14 090 0 gusting 2 21.7
2016-Sep-27 23:09 087 1 gusting 4 21.7
2016-Sep-27 23:04 090 2 gusting 4 21.7
2016-Sep-27 22:59 070 0 gusting 2 21.7
2016-Sep-27 22:54 045 0 gusting 1 21.7
2016-Sep-27 22:49 315 0 gusting 1 21.7
2016-Sep-27 22:44 315 22.2
2016-Sep-27 22:39 315 0 gusting 0 22.2
2016-Sep-27 22:34 318 0 gusting 1 21.7
2016-Sep-27 22:29 045 0 gusting 1 22.2
2016-Sep-27 22:24 319 0 gusting 1 22.2
2016-Sep-27 22:19 045 0 gusting 1 22.2
2016-Sep-27 22:14 131 22.2
2016-Sep-27 22:09 090 0 gusting 1 22.2
2016-Sep-27 22:04 135 0 gusting 1 22.2
2016-Sep-27 21:59 090 0 gusting 2 22.2
2016-Sep-27 21:54 087 0 gusting 1 22.2
2016-Sep-27 21:49 090 0 gusting 2 22.2
2016-Sep-27 21:44 133 0 gusting 2 22.2
2016-Sep-27 21:39 131 0 gusting 2 22.2
2016-Sep-27 21:34 137 0 gusting 4 22.2
2016-Sep-27 21:29 132 1 gusting 4 22.2
2016-Sep-27 21:24 096 1 gusting 5 22.2
2016-Sep-27 21:19 093 1 gusting 4 22.2
2016-Sep-27 21:14 090 1 gusting 2 22.2
2016-Sep-27 21:09 090 1 gusting 2 22.8
2016-Sep-27 21:04 090 1 gusting 2 22.8
2016-Sep-27 20:59 049 1 gusting 2 22.8
2016-Sep-27 20:54 128 1 gusting 4 22.8
2016-Sep-27 20:49 049 1 gusting 4 22.8
2016-Sep-27 20:44 088 1 gusting 4 22.8
2016-Sep-27 20:39 090 2 gusting 5 22.8
2016-Sep-27 20:34 090 2 gusting 5 22.8
2016-Sep-27 20:29 090 0 gusting 4 22.8
2016-Sep-27 20:24 090 1 gusting 2 22.8
2016-Sep-27 20:19 131 1 gusting 5 22.8
2016-Sep-27 20:14 090 2 gusting 4 23.3
2016-Sep-27 20:09 090 2 gusting 4 23.3
2016-Sep-27 20:04 090 0 gusting 4 23.3
2016-Sep-27 19:59 090 2 gusting 4 23.3
2016-Sep-27 19:54 090 2 gusting 4 23.3
2016-Sep-27 19:49 090 1 gusting 5 23.3
2016-Sep-27 19:44 090 2 gusting 5 23.3
2016-Sep-27 19:39 090 2 gusting 6 23.3
2016-Sep-27 19:34 090 2 gusting 5 23.3
2016-Sep-27 19:29 087 1 gusting 4 23.3
2016-Sep-27 19:24 099 1 gusting 5 23.9
2016-Sep-27 19:19 048 2 gusting 5 23.9
2016-Sep-27 19:14 090 2 gusting 6 23.9
2016-Sep-27 19:09 132 2 gusting 6 23.9
2016-Sep-27 19:04 090 4 gusting 6 23.9
2016-Sep-27 18:59 049 2 gusting 5 23.9
2016-Sep-27 18:54 090 1 gusting 6 23.9
2016-Sep-27 18:49 131 3 gusting 5 23.9
2016-Sep-27 18:44 051 3 gusting 6 23.9
2016-Sep-27 18:39 090 3 gusting 6 24.4
2016-Sep-27 18:34 135 3 gusting 6 24.4
2016-Sep-27 18:29 090 4 gusting 8 24.4
2016-Sep-27 18:24 090 4 gusting 7 24.4
2016-Sep-27 18:19 095 4 gusting 8 24.4
2016-Sep-27 18:14 085 5 gusting 8 24.4
2016-Sep-27 18:09 090 5 gusting 10 25.0
2016-Sep-27 18:04 090 5 gusting 8 25.0
2016-Sep-27 17:59 090 5 gusting 8 25.0
2016-Sep-27 17:54 090 3 gusting 8 25.0
2016-Sep-27 17:49 090 4 gusting 10 25.6
2016-Sep-27 17:44 131 3 gusting 11 25.6
2016-Sep-27 17:39 085 5 gusting 11 25.6
2016-Sep-27 17:34 090 6 gusting 11 25.6
2016-Sep-27 17:29 095 4 gusting 8 25.6
2016-Sep-27 17:24 051 6 gusting 12 26.1
2016-Sep-27 17:19 090 7 gusting 12 26.1
2016-Sep-27 17:14 091 5 gusting 11 26.7
2016-Sep-27 17:09 135 2 gusting 8 26.7
2016-Sep-27 17:04 090 5 gusting 8 26.7
2016-Sep-27 16:59 095 6 gusting 10 26.7
2016-Sep-27 16:54 050 6 gusting 12 26.7
2016-Sep-27 16:49 090 6 gusting 13 26.7
2016-Sep-27 16:44 090 7 gusting 13 26.7
2016-Sep-27 16:39 092 6 gusting 13 26.7
2016-Sep-27 16:34 045 5 gusting 11 26.7
2016-Sep-27 16:29 176 6 gusting 12 26.7
2016-Sep-27 16:24 090 4 gusting 12 26.7
2016-Sep-27 16:19 093 7 gusting 14 26.7
2016-Sep-27 16:14 090 6 gusting 13 27.2
2016-Sep-27 16:09 050 9 gusting 13 27.2
2016-Sep-27 16:04 090 7 gusting 13 27.2
2016-Sep-27 15:59 090 6 gusting 13 27.2
2016-Sep-27 15:54 131 7 gusting 13 27.2
2016-Sep-27 15:49 135 4 gusting 13 27.2
2016-Sep-27 15:44 090 7 gusting 13 27.2
2016-Sep-27 15:39 090 5 gusting 11 27.2
2016-Sep-27 15:34 315 1 gusting 11 27.2
2016-Sep-27 15:29 050 6 gusting 13 27.2
2016-Sep-27 15:24 049 10 gusting 15 27.2
2016-Sep-27 15:19 090 9 gusting 14 27.2
2016-Sep-27 15:14 095 6 gusting 13 27.2
2016-Sep-27 15:09 095 8 gusting 13 27.2
2016-Sep-27 15:04 052 6 gusting 13 27.2
2016-Sep-27 14:59 090 8 gusting 15 27.8
2016-Sep-27 14:54 090 8 gusting 14 27.8
2016-Sep-27 14:49 090 8 gusting 17 28.3
2016-Sep-27 14:44 050 7 gusting 13 28.3
2016-Sep-27 14:39 090 6 gusting 13 28.3
2016-Sep-27 14:34 090 8 gusting 13 28.3
2016-Sep-27 14:29 090 9 gusting 13 28.3
2016-Sep-27 14:24 090 6 gusting 17 28.3
2016-Sep-27 14:19 048 10 gusting 17 28.9
2016-Sep-27 14:14 050 6 gusting 14 28.3
2016-Sep-27 14:09 087 8 gusting 14 28.9
2016-Sep-27 14:04 045 6 gusting 13 28.9
2016-Sep-27 13:59 128 5 gusting 15 28.9
2016-Sep-27 13:54 090 6 gusting 15 28.9
2016-Sep-27 13:49 152 5 gusting 8 28.9
2016-Sep-27 13:44 090 4 gusting 8 28.9
2016-Sep-27 13:39 045 6 gusting 11 28.3
2016-Sep-27 13:34 095 6 gusting 13 28.3
2016-Sep-27 13:29 050 5 gusting 11 28.3
2016-Sep-27 13:24 090 6 gusting 13 28.3
2016-Sep-27 13:19 090 6 gusting 13 28.3
2016-Sep-27 13:14 070 4 gusting 11 28.3
2016-Sep-27 13:09 132 6 gusting 11 28.3
2016-Sep-27 13:04 135 5 gusting 10 28.3
2016-Sep-27 12:59 045 4 gusting 11 28.3
2016-Sep-27 12:54 090 6 gusting 11 28.3
2016-Sep-27 12:49 090 6 gusting 13 28.3
2016-Sep-27 12:44 090 8 gusting 13 28.3
2016-Sep-27 12:39 093 3 gusting 6 28.3
2016-Sep-27 12:34 053 4 gusting 11 27.8
2016-Sep-27 12:29 045 5 gusting 11 27.8
2016-Sep-27 12:24 088 6 gusting 11 27.8
2016-Sep-27 12:19 090 5 gusting 10 27.8
2016-Sep-27 12:14 087 5 gusting 7 27.8
2016-Sep-27 12:09 094 2 gusting 6 27.8
2016-Sep-27 12:04 045 0 gusting 5 27.8
2016-Sep-27 11:59 045 0 gusting 7 27.8
2016-Sep-27 11:54 050 5 gusting 11 27.8
2016-Sep-27 11:49 086 5 gusting 8 27.8
2016-Sep-27 11:44 135 4 gusting 6 27.8
2016-Sep-27 11:39 045 2 gusting 7 27.8
2016-Sep-27 11:34 090 5 gusting 8 27.8
2016-Sep-27 11:29 090 0 gusting 5 27.8
2016-Sep-27 11:24 090 4 gusting 6 27.8
2016-Sep-27 11:19 090 4 gusting 8 27.2
2016-Sep-27 11:14 049 5 gusting 7 27.2
2016-Sep-27 11:09 045 3 gusting 10 27.2
2016-Sep-27 11:04 045 6 gusting 10 27.2